createdAt,value
2023-03-17T00:00:11.533Z,100293.73
2023-03-17T00:03:13.166Z,100291.10
2023-03-17T00:06:18.066Z,100291.20
2023-03-17T00:09:23.515Z,100295.16
2023-03-17T00:12:27.464Z,100297.43
2023-03-17T00:15:28.600Z,100301.64
2023-03-17T00:18:31.783Z,100304.09
2023-03-17T00:21:43.773Z,100307.45
2023-03-17T00:24:48.473Z,100302.77
2023-03-17T00:27:53.460Z,100306.83
2023-03-17T00:30:58.839Z,100307.48
2023-03-17T00:34:07.121Z,100312.90
2023-03-17T00:37:10.538Z,100317.94
2023-03-17T00:40:10.476Z,100312.67
2023-03-17T00:43:17.964Z,100310.25
2023-03-17T00:46:31.551Z,100312.19
2023-03-17T00:49:34.633Z,100314.28
2023-03-17T00:52:43.665Z,100318.23
2023-03-17T00:55:44.556Z,100313.83
2023-03-17T00:58:49.587Z,100318.02
2023-03-17T01:01:50.557Z,100318.20
2023-03-17T01:05:06.262Z,100314.01
2023-03-17T01:08:15.231Z,100313.02
2023-03-17T01:11:15.564Z,100317.36
2023-03-17T01:14:17.583Z,100320.17
2023-03-17T01:17:22.774Z,100324.66
2023-03-17T01:20:51.814Z,100326.57
2023-03-17T01:23:51.581Z,100329.77
2023-03-17T01:26:52.573Z,100326.98
2023-03-17T01:29:52.633Z,100335.01
2023-03-17T01:32:57.669Z,100333.56
2023-03-17T01:35:58.679Z,100330.13
2023-03-17T01:39:01.600Z,100332.09
2023-03-17T01:42:21.615Z,100334.39
2023-03-17T01:45:43.636Z,100330.70
2023-03-17T01:48:50.553Z,100333.58
2023-03-17T01:52:00.701Z,100331.67
2023-03-17T01:55:08.756Z,100337.89
2023-03-17T01:58:09.997Z,100338.42
2023-03-17T02:01:10.904Z,100338.17
2023-03-17T02:04:10.717Z,100338.76
2023-03-17T02:07:12.622Z,100338.56
2023-03-17T02:10:14.765Z,100338.75
2023-03-17T02:13:21.795Z,100351.70
2023-03-17T02:16:25.874Z,100353.97
2023-03-17T02:19:27.048Z,100358.77
2023-03-17T02:22:34.465Z,100357.85
2023-03-17T02:25:36.270Z,100362.84
2023-03-17T02:28:37.743Z,100362.42
2023-03-17T02:31:37.669Z,100362.77
2023-03-17T02:34:38.695Z,100374.55
2023-03-17T02:37:38.707Z,100372.71
2023-03-17T02:40:41.219Z,100377.20
2023-03-17T02:43:45.788Z,100385.45
2023-03-17T02:46:47.951Z,100388.83
2023-03-17T02:49:48.915Z,100389.71
2023-03-17T02:52:49.745Z,100394.89
2023-03-17T02:55:51.704Z,100391.20
2023-03-17T02:58:52.714Z,100397.17
2023-03-17T03:01:59.275Z,100390.55
2023-03-17T03:05:03.238Z,100398.23
2023-03-17T03:08:05.987Z,100396.56
2023-03-17T03:11:08.747Z,100394.61
2023-03-17T03:14:12.118Z,100391.76
2023-03-17T03:17:12.953Z,100392.37
2023-03-17T03:20:16.873Z,100394.85
2023-03-17T03:23:19.088Z,100396.25
2023-03-17T03:26:22.889Z,100400.41
2023-03-17T03:29:27.862Z,100402.58
2023-03-17T03:32:28.788Z,100405.73
2023-03-17T03:35:28.825Z,100406.34
2023-03-17T03:38:33.906Z,100406.98
2023-03-17T03:41:39.396Z,100416.67
2023-03-17T03:44:45.640Z,100424.14
2023-03-17T03:47:45.814Z,100423.08
2023-03-17T03:50:47.792Z,100425.67
2023-03-17T03:53:48.925Z,100427.38
2023-03-17T03:56:49.915Z,100427.65
2023-03-17T03:59:49.878Z,100433.80
2023-03-17T04:02:53.865Z,100428.82
2023-03-17T04:05:55.297Z,100436.60
2023-03-17T04:08:58.419Z,100440.52
2023-03-17T04:11:59.950Z,100449.16
2023-03-17T04:14:59.861Z,100451.49
2023-03-17T04:18:06.031Z,100452.86
2023-03-17T04:21:08.837Z,100453.62
2023-03-17T04:24:11.126Z,100457.35
2023-03-17T04:27:13.874Z,100460.02
2023-03-17T04:30:15.976Z,100462.98
2023-03-17T04:33:16.997Z,100464.67
2023-03-17T04:36:18.339Z,100462.45
2023-03-17T04:39:23.767Z,100470.36
2023-03-17T04:42:36.971Z,100474.35
2023-03-17T04:45:36.921Z,100478.05
2023-03-17T04:48:37.937Z,100476.55
2023-03-17T04:51:52.920Z,100481.31
2023-03-17T04:55:07.945Z,100491.49
2023-03-17T04:58:18.193Z,100493.16
2023-03-17T05:01:30.190Z,100498.31
2023-03-17T05:04:33.005Z,100502.84
2023-03-17T05:07:34.354Z,100505.54
2023-03-17T05:10:36.310Z,100505.02
2023-03-17T05:13:37.012Z,100497.52
2023-03-17T05:16:39.202Z,100504.70
2023-03-17T05:19:42.938Z,100508.40
2023-03-17T05:22:47.238Z,100514.13
2023-03-17T05:25:51.078Z,100517.00
2023-03-17T05:28:54.963Z,100516.05
2023-03-17T05:31:57.554Z,100517.45
2023-03-17T05:35:00.001Z,100524.13
2023-03-17T05:38:03.161Z,100525.24
2023-03-17T05:41:03.531Z,100526.05
2023-03-17T05:44:07.216Z,100528.93
2023-03-17T05:47:10.174Z,100532.91
2023-03-17T05:50:11.061Z,100536.73
2023-03-17T05:53:13.039Z,100542.40
2023-03-17T05:56:16.065Z,100544.95
2023-03-17T05:59:16.374Z,100548.42
2023-03-17T06:02:23.127Z,100547.72
2023-03-17T06:05:25.326Z,100554.02
2023-03-17T06:08:32.106Z,100553.95
2023-03-17T06:11:33.315Z,100554.52
2023-03-17T06:14:40.200Z,100556.83
2023-03-17T06:17:59.516Z,100557.81
2023-03-17T06:21:04.066Z,100560.86
2023-03-17T06:24:10.484Z,100562.21
2023-03-17T06:27:14.086Z,100569.98
2023-03-17T06:30:15.301Z,100570.77
2023-03-17T06:33:20.070Z,100573.58
2023-03-17T06:36:31.550Z,100569.31
2023-03-17T06:39:33.109Z,100576.05
2023-03-17T06:42:38.165Z,100573.64
2023-03-17T06:45:43.120Z,100573.17
2023-03-17T06:48:44.175Z,100577.16
2023-03-17T06:51:48.281Z,100578.08
2023-03-17T06:58:09.603Z,100576.23
2023-03-17T07:01:15.580Z,100575.13
2023-03-17T07:04:17.170Z,100579.11
2023-03-17T07:07:19.188Z,100578.80
2023-03-17T07:10:24.573Z,100581.75
2023-03-17T07:13:27.454Z,100589.29
2023-03-17T07:16:32.441Z,100591.33
2023-03-17T07:19:37.160Z,100593.34
2023-03-17T07:22:38.270Z,100591.48
2023-03-17T07:25:45.229Z,100592.52
2023-03-17T07:28:48.653Z,100593.80
2023-03-17T07:31:50.229Z,100599.05
2023-03-17T07:34:57.629Z,100602.73
2023-03-17T07:38:01.823Z,100603.25
2023-03-17T07:41:03.230Z,100607.12
2023-03-17T07:44:05.243Z,100605.30
2023-03-17T07:47:05.772Z,100605.72
2023-03-17T07:50:13.503Z,100602.88
2023-03-17T07:53:13.308Z,100605.98
2023-03-17T07:56:14.212Z,100610.15
2023-03-17T07:59:15.459Z,100612.77
2023-03-17T08:02:28.442Z,100616.97
2023-03-17T08:05:28.257Z,100617.55
2023-03-17T08:08:23.617Z,100615.77
2023-03-17T08:11:30.734Z,100623.30
2023-03-17T08:14:37.391Z,100624.63
2023-03-17T08:17:52.519Z,100627.10
2023-03-17T08:21:18.378Z,100630.35
2023-03-17T08:24:22.399Z,100632.08
2023-03-17T08:27:27.371Z,100629.09
2023-03-17T08:30:33.710Z,100628.70
2023-03-17T08:33:36.423Z,100628.19
2023-03-17T08:36:57.464Z,100637.60
2023-03-17T08:40:01.479Z,100640.02
2023-03-17T08:43:06.308Z,100638.42
2023-03-17T08:46:16.699Z,100642.95
2023-03-17T08:49:22.327Z,100644.70
2023-03-17T08:52:28.583Z,100647.54
2023-03-17T08:55:31.795Z,100646.30
2023-03-17T08:58:42.780Z,100652.73
2023-03-17T09:01:45.565Z,100654.67
2023-03-17T09:04:50.958Z,100657.27
2023-03-17T09:07:56.632Z,100655.42
2023-03-17T09:10:56.956Z,100656.85
2023-03-17T09:13:58.522Z,100654.09
2023-03-17T09:17:04.046Z,100660.36
2023-03-17T09:20:08.633Z,100661.18
2023-03-17T09:23:20.130Z,100658.40
2023-03-17T09:26:22.381Z,100657.39
2023-03-17T09:29:26.226Z,100659.61
2023-03-17T09:32:29.496Z,100665.85
2023-03-17T09:35:40.277Z,100664.52
2023-03-17T09:38:43.793Z,100667.58
2023-03-17T09:42:05.395Z,100667.47
2023-03-17T09:45:48.593Z,100672.84
2023-03-17T09:48:57.998Z,100670.73
2023-03-17T09:52:12.927Z,100673.81
2023-03-17T09:55:31.168Z,100677.64
2023-03-17T09:58:38.417Z,100685.89
2023-03-17T10:01:46.584Z,100683.14
2023-03-17T10:04:52.075Z,100685.41
2023-03-17T10:08:05.452Z,100682.46
2023-03-17T10:11:13.428Z,100684.38
2023-03-17T10:14:30.445Z,100681.88
2023-03-17T10:17:46.539Z,100684.58
2023-03-17T10:20:48.697Z,100687.92
2023-03-17T10:24:00.772Z,100688.27
2023-03-17T10:27:11.978Z,100690.36
2023-03-17T10:30:24.553Z,100691.98
2023-03-17T10:33:46.961Z,100690.08
2023-03-17T10:37:07.478Z,100687.81
2023-03-17T10:40:11.898Z,100690.21
2023-03-17T10:43:23.096Z,100693.83
2023-03-17T10:46:41.858Z,100695.06
2023-03-17T10:49:46.464Z,100696.87
2023-03-17T10:52:49.718Z,100693.34
2023-03-17T10:55:56.641Z,100699.37
2023-03-17T10:59:08.023Z,100705.01
2023-03-17T11:02:11.993Z,100702.44
2023-03-17T11:05:39.749Z,100706.79
2023-03-17T11:09:06.636Z,100705.27
2023-03-17T11:12:19.130Z,100702.73
2023-03-17T11:15:32.223Z,100704.59
2023-03-17T11:18:40.899Z,100705.45
2023-03-17T11:21:52.782Z,100708.31
2023-03-17T11:28:23.781Z,100712.84
2023-03-17T11:31:43.724Z,100715.25
2023-03-17T11:35:13.410Z,100714.36
2023-03-17T11:38:34.591Z,100714.31
2023-03-17T11:41:49.759Z,100714.72
2023-03-17T11:45:29.417Z,100716.13
2023-03-17T11:49:16.055Z,100718.15
2023-03-17T11:52:33.820Z,100719.02
2023-03-17T11:55:55.591Z,100725.96
2023-03-17T11:58:57.803Z,100726.86
2023-03-17T12:02:03.675Z,100728.04
2023-03-17T12:05:08.656Z,100733.53
2023-03-17T12:08:14.713Z,100733.90
2023-03-17T12:11:18.021Z,100737.14
2023-03-17T12:14:18.681Z,100739.96
2023-03-17T12:17:34.829Z,100734.34
2023-03-17T12:20:54.635Z,100737.73
2023-03-17T12:24:03.812Z,100738.44
2023-03-17T12:27:05.996Z,100741.75
2023-03-17T12:30:08.916Z,100747.01
2023-03-17T12:33:28.945Z,100751.58
2023-03-17T12:36:34.279Z,100751.00
2023-03-17T12:39:38.235Z,100754.17
2023-03-17T12:42:45.475Z,100753.20
2023-03-17T12:46:06.112Z,100753.95
2023-03-17T12:49:08.784Z,100760.27
2023-03-17T12:52:10.008Z,100761.05
2023-03-17T12:55:10.968Z,100762.00
2023-03-17T12:58:20.783Z,100762.79
2023-03-17T13:01:31.873Z,100762.59
2023-03-17T13:04:42.687Z,100762.48
2023-03-17T13:07:48.607Z,100764.87
2023-03-17T13:10:58.020Z,100768.35
2023-03-17T13:14:07.352Z,100771.54
2023-03-17T13:17:18.821Z,100767.29
2023-03-17T13:20:21.822Z,100771.36
2023-03-17T13:23:27.945Z,100772.53
2023-03-17T13:26:40.390Z,100774.80
2023-03-17T13:29:43.996Z,100776.09
2023-03-17T13:32:46.137Z,100778.14
2023-03-17T13:36:04.860Z,100780.70
2023-03-17T13:39:21.296Z,100781.36
2023-03-17T13:42:57.327Z,100783.45
2023-03-17T13:46:02.145Z,100786.56
2023-03-17T13:49:06.975Z,100788.55
2023-03-17T13:52:40.080Z,100788.27
2023-03-17T13:55:51.380Z,100791.11
2023-03-17T13:59:16.060Z,100795.45
2023-03-17T14:02:49.346Z,100800.02
2023-03-17T14:06:09.819Z,100801.86
2023-03-17T14:09:16.484Z,100804.13
2023-03-17T14:12:41.071Z,100806.92
2023-03-17T14:15:53.879Z,100807.90
2023-03-17T14:18:55.890Z,100804.42
2023-03-17T14:21:58.926Z,100807.52
2023-03-17T14:25:07.089Z,100806.01
2023-03-17T14:28:12.091Z,100806.35
2023-03-17T14:31:17.346Z,100810.64
2023-03-17T14:34:19.102Z,100812.64
2023-03-17T14:37:23.932Z,100810.84
2023-03-17T14:40:32.496Z,100814.08
2023-03-17T14:43:35.997Z,100817.90
2023-03-17T14:46:43.012Z,100815.62
2023-03-17T14:49:44.259Z,100820.54
2023-03-17T14:52:50.181Z,100822.77
2023-03-17T14:55:57.748Z,100825.77
2023-03-17T15:02:48.153Z,100828.30
2023-03-17T15:05:55.260Z,100834.95
2023-03-17T15:09:01.037Z,100832.45
2023-03-17T15:12:06.296Z,100834.92
2023-03-17T15:15:14.066Z,100834.74
2023-03-17T15:18:36.155Z,100833.44
2023-03-17T15:21:40.975Z,100836.16
2023-03-17T15:24:50.149Z,100835.55
2023-03-17T15:27:51.153Z,100837.12
2023-03-17T15:30:55.250Z,100833.77
2023-03-17T15:33:58.023Z,100841.52
2023-03-17T15:37:09.219Z,100842.53
2023-03-17T15:40:12.103Z,100843.47
2023-03-17T15:43:27.170Z,100851.23
2023-03-17T15:46:48.405Z,100854.21
2023-03-17T15:49:56.080Z,100861.88
2023-03-17T15:53:03.213Z,100863.04
2023-03-17T15:56:09.624Z,100867.44
2023-03-17T15:59:12.012Z,100867.61
2023-03-17T16:02:30.602Z,100874.05
2023-03-17T16:05:34.123Z,100881.33
2023-03-17T16:08:41.857Z,100879.79
2023-03-17T16:11:46.073Z,100883.59
2023-03-17T16:14:53.403Z,100885.04
2023-03-17T16:17:57.457Z,100888.70
2023-03-17T16:21:00.107Z,100888.30
2023-03-17T16:24:02.653Z,100889.64
2023-03-17T16:27:06.076Z,100889.99
2023-03-17T16:30:10.096Z,100892.99
2023-03-17T16:33:16.396Z,100897.44
2023-03-17T16:36:17.464Z,100902.23
2023-03-17T16:39:22.218Z,100903.80
2023-03-17T16:42:40.293Z,100907.23
2023-03-17T16:45:45.073Z,100902.47
2023-03-17T16:48:46.267Z,100904.55
2023-03-17T16:51:50.216Z,100909.96
2023-03-17T16:54:54.108Z,100910.80
2023-03-17T16:57:57.663Z,100912.02
2023-03-17T17:01:01.266Z,100915.71
2023-03-17T17:04:05.126Z,100916.55
2023-03-17T17:07:06.296Z,100919.80
2023-03-17T17:10:07.160Z,100922.42
2023-03-17T17:13:09.164Z,100924.52
2023-03-17T17:16:16.209Z,100926.94
2023-03-17T17:19:16.182Z,100934.68
2023-03-17T17:22:18.336Z,100933.14
2023-03-17T17:25:18.160Z,100936.65
2023-03-17T17:28:20.158Z,100936.75
2023-03-17T17:31:22.247Z,100936.55
2023-03-17T17:34:25.226Z,100935.30
2023-03-17T17:37:26.395Z,100937.52
2023-03-17T17:40:31.541Z,100935.77
2023-03-17T17:43:33.319Z,100934.02
2023-03-17T17:46:38.257Z,100937.29
2023-03-17T17:49:39.232Z,100941.65
2023-03-17T17:52:39.487Z,100941.73
2023-03-17T17:55:39.263Z,100944.35
2023-03-17T17:58:44.282Z,100944.13
2023-03-17T18:01:45.317Z,100946.65
2023-03-17T18:04:47.338Z,100947.80
2023-03-17T18:07:52.361Z,100951.27
2023-03-17T18:10:52.604Z,100949.90
2023-03-17T18:13:55.226Z,100951.98
2023-03-17T18:16:56.687Z,100953.50
2023-03-17T18:20:04.555Z,100959.52
2023-03-17T18:23:06.334Z,100957.91
2023-03-17T18:26:16.924Z,100960.13
2023-03-17T18:29:19.417Z,100956.19
2023-03-17T18:32:33.575Z,100960.89
2023-03-17T18:35:38.686Z,100960.18
2023-03-17T18:38:40.418Z,100959.38
2023-03-17T18:41:42.901Z,100953.30
2023-03-17T18:44:47.356Z,100958.31
2023-03-17T18:47:48.112Z,100958.15
2023-03-17T18:50:42.455Z,100965.40
2023-03-17T18:53:46.336Z,100968.65
2023-03-17T18:56:48.414Z,100972.38
2023-03-17T18:59:51.441Z,100972.70
2023-03-17T19:02:52.343Z,100972.85
2023-03-17T19:09:12.619Z,100973.17
2023-03-17T19:12:13.508Z,100971.69
2023-03-17T19:15:18.375Z,100969.96
2023-03-17T19:18:31.229Z,100975.07
2023-03-17T19:21:32.414Z,100971.36
2023-03-17T19:24:34.483Z,100971.77
2023-03-17T19:27:36.360Z,100975.92
2023-03-17T19:30:40.451Z,100970.80
2023-03-17T19:33:43.465Z,100975.88
2023-03-17T19:36:48.464Z,100978.42
2023-03-17T19:39:57.541Z,100981.27
2023-03-17T19:43:04.141Z,100982.52
2023-03-17T19:46:07.401Z,100983.66
2023-03-17T19:49:08.705Z,100974.92
2023-03-17T19:52:08.500Z,100973.23
2023-03-17T19:55:11.626Z,100966.23
2023-03-17T19:58:14.488Z,100968.45
2023-03-17T20:01:15.491Z,100960.98
2023-03-17T20:04:17.576Z,100961.55
2023-03-17T20:07:20.454Z,100965.40
2023-03-17T20:10:22.913Z,100966.55
2023-03-17T20:13:25.597Z,100966.48
2023-03-17T20:16:29.505Z,100971.10
2023-03-17T20:19:30.549Z,100974.55
2023-03-17T20:22:33.951Z,100976.16
2023-03-17T20:25:35.549Z,100972.69
2023-03-17T20:28:36.652Z,100972.75
2023-03-17T20:31:37.500Z,100977.25
2023-03-17T20:34:38.509Z,100971.86
2023-03-17T20:37:40.505Z,100967.29
2023-03-17T20:40:45.559Z,100969.01
2023-03-17T20:43:46.502Z,100962.98
2023-03-17T20:46:51.102Z,100962.24
2023-03-17T20:49:58.701Z,100954.38
2023-03-17T20:53:00.030Z,100952.33
2023-03-17T20:56:08.608Z,100956.21
2023-03-17T20:59:11.652Z,100958.95
2023-03-17T21:02:15.922Z,100964.73
2023-03-17T21:05:17.682Z,100961.35
2023-03-17T21:08:18.570Z,100960.90
2023-03-17T21:11:35.818Z,100961.55
2023-03-17T21:14:40.949Z,100965.19
2023-03-17T21:17:49.584Z,100966.85
2023-03-17T21:21:17.454Z,100972.50
2023-03-17T21:24:45.765Z,100976.25
2023-03-17T21:27:55.579Z,100970.19
2023-03-17T21:31:15.686Z,100976.34
2023-03-17T21:34:36.424Z,100972.80
2023-03-17T21:37:47.354Z,100974.39
2023-03-17T21:40:49.622Z,100974.83
2023-03-17T21:43:53.673Z,100976.71
2023-03-17T21:46:55.945Z,100979.47
2023-03-17T21:49:58.802Z,100979.16
2023-03-17T21:53:01.838Z,100982.13
2023-03-17T21:56:03.740Z,100981.96
2023-03-17T22:02:55.434Z,100983.21
2023-03-17T22:06:00.646Z,100980.88
2023-03-17T22:09:09.670Z,100979.89
2023-03-17T22:12:13.368Z,100978.59
2023-03-17T22:15:28.638Z,100982.38
2023-03-17T22:18:30.719Z,100977.58
2023-03-17T22:21:41.290Z,100988.02
2023-03-17T22:24:47.670Z,100989.89
2023-03-17T22:27:47.643Z,100989.55
2023-03-17T22:30:50.624Z,100991.63
2023-03-17T22:33:55.199Z,100985.23
2023-03-17T22:37:02.658Z,100982.74
2023-03-17T22:40:08.799Z,100990.85
2023-03-17T22:43:11.687Z,100987.80
2023-03-17T22:46:18.335Z,100993.50
2023-03-17T22:49:21.667Z,100993.08
2023-03-17T22:52:23.569Z,100992.14
2023-03-17T22:55:24.702Z,100987.28
2023-03-17T22:58:26.426Z,100993.25
2023-03-17T23:01:29.853Z,100994.14
2023-03-17T23:04:32.794Z,100996.97
2023-03-17T23:07:44.291Z,100994.35
2023-03-17T23:10:50.145Z,100992.55
2023-03-17T23:13:54.083Z,100991.13
2023-03-17T23:16:55.760Z,100989.97
2023-03-17T23:19:57.811Z,100988.92
2023-03-17T23:22:58.830Z,100985.33
2023-03-17T23:26:03.009Z,100982.36
2023-03-17T23:29:04.745Z,100984.89
2023-03-17T23:32:06.793Z,100987.52
2023-03-17T23:35:09.047Z,100995.86
2023-03-17T23:38:09.822Z,100998.79
2023-03-17T23:41:09.870Z,100998.85
2023-03-17T23:44:15.296Z,100997.02
2023-03-17T23:47:20.067Z,100997.14
2023-03-17T23:50:25.971Z,100996.14
2023-03-17T23:53:26.820Z,100991.63
2023-03-17T23:56:31.883Z,100996.91
2023-03-17T23:59:32.969Z,100993.52
